Santa Barbara Municipal Airport
KSBA : rendu visible

Aérodrome :











RETROUVEZ-NOUS SUR...

 
LOGIN :

S'inscrire | Disclaimer

   EN    FR    IT 

 









Légende :    VFR   VFR Marginal   IFR   IFR Intensif   IFR Très Intensif
Visi : 
Plafond : 
>= 8 km
>= 3000ft
5 à 8 km
1000 à 3000 ft
1500m à 5 km
500 à 1000 ft
800 à 1500m
200 à 500 ft
< 800m
< 200 ft
Symboles :   Orages  Brouillard  Fortes neiges  Fortes précipitations  Vent > 20 kt






- Altitude de l'aérodrome : 13 ft
- Code IATA : SBA


KSBA - Santa Barbara Municipal

DERNIER METAR :
  • 240653Z 10007KT 10SM CLR 15/10 A2993 RMK AO2 SLP136 T01500100 $

METARs EXPIRÉS :
  • 240553Z 02012KT 10SM CLR 15/04 A2992 RMK AO2 SLP131 T01500039 10200 20144 50007 $
  • 240453Z 21004KT 10SM CLR 15/04 A2992 RMK AO2 SLP132 T01500039 $

TAF KSBA
Valide du 24 à 06h jusqu'au 25 à 06h UTC


240534Z 2406/2506 VRB03KT P6SM SKC
FM241700 15006KT P6SM SKC
FM242100 24008KT P6SM SKC
FM250300 VRB03KT P6SM SKC
FIR KZLA / Amérique du Nord



MET'MAP, la Météo Aéronautique d'un coup d'oeil ! - Copyright ORBIFLY Décembre 2007 - Disclaimer

ORBIFLY MET'MAP TEAM :

Programmation & Développement : Alexandra Zaïnal
Sur une idée originale de : Baudouin d'Aumeries
Assistance à la programmation : Marc-Olivier Méhu
Soutien technique & logistique : Manuel Goepfert

Contact : metmap@orbifly.com




SOURCES & CREDITS :

   NOAA       Earth
Advisory